< < Back
Terminal Aerodrome Forecast


Current Version              Previous Versions:   1  2  3  4  5  6  7  8  9  

Terminal Aerodrome Forecast

426
FTUS42 KILM 240900 AAA
TAFILM
TAF AMD
KILM 240917Z 2409/2506 20008KT 6SM -RA VCSH SCT030 BKN045 OVC060
     FM241600 21014G20KT P6SM VCSH SCT007 OVC015
     FM250000 20010KT 3SM BR SCT003 OVC012=



Latest METAR

305
SAUS70 KWBC 242100 RRC
MTRILM
METAR KILM 242053Z 22014G21KT 5SM BR OVC007 22/21 A2987 RMK AO2 SLP115
T02170206 53006


USA.gov is the U.S. government's official web portal to all federal, state and local government web resources and services.